createdAt,value
2018-12-08T00:04:15.870Z,7.50
2018-12-08T00:09:17.103Z,7.50
2018-12-08T00:14:18.289Z,7.40
2018-12-08T00:19:19.473Z,7.40
2018-12-08T00:24:20.689Z,7.30
2018-12-08T00:29:21.911Z,7.30
2018-12-08T00:34:23.074Z,7.20
2018-12-08T00:39:24.230Z,7.10
2018-12-08T00:44:25.424Z,7.00
2018-12-08T00:49:26.607Z,7.00
2018-12-08T00:54:27.782Z,7.00
2018-12-08T00:59:28.959Z,7.00
2018-12-08T01:04:30.142Z,7.00
2018-12-08T01:09:31.326Z,6.90
2018-12-08T01:14:32.536Z,6.80
2018-12-08T01:19:33.729Z,6.90
2018-12-08T01:24:34.912Z,6.90
2018-12-08T01:29:36.212Z,6.90
2018-12-08T01:34:37.400Z,6.80
2018-12-08T01:39:38.597Z,6.80
2018-12-08T01:44:39.813Z,6.80
2018-12-08T01:49:41.018Z,6.70
2018-12-08T01:54:42.205Z,6.40
2018-12-08T01:59:43.378Z,6.20
2018-12-08T02:04:44.682Z,5.90
2018-12-08T02:09:45.861Z,5.80
2018-12-08T02:14:47.041Z,5.50
2018-12-08T02:19:48.218Z,5.40
2018-12-08T02:24:49.382Z,5.40
2018-12-08T02:29:50.550Z,5.30
2018-12-08T02:34:51.722Z,5.40
2018-12-08T02:39:52.906Z,5.50
2018-12-08T02:44:54.083Z,5.60
2018-12-08T02:49:55.406Z,5.60
2018-12-08T02:54:56.590Z,5.70
2018-12-08T02:59:57.769Z,5.90
2018-12-08T03:04:58.997Z,5.90
2018-12-08T03:10:00.167Z,5.90
2018-12-08T03:15:01.424Z,5.90
2018-12-08T03:20:03.286Z,5.90
2018-12-08T03:25:04.574Z,6.00
2018-12-08T03:30:05.985Z,5.90
2018-12-08T03:35:07.192Z,5.90
2018-12-08T03:40:08.501Z,6.10
2018-12-08T03:45:09.684Z,6.10
2018-12-08T03:50:11.093Z,6.10
2018-12-08T03:55:12.348Z,8.90
2018-12-08T04:00:13.544Z,6.00
2018-12-08T04:05:14.718Z,6.00
2018-12-08T04:10:15.890Z,6.10
2018-12-08T04:15:17.196Z,6.10
2018-12-08T04:20:18.386Z,6.30
2018-12-08T04:25:19.570Z,6.30
2018-12-08T04:30:20.737Z,6.20
2018-12-08T04:35:21.926Z,6.10
2018-12-08T04:40:23.123Z,6.00
2018-12-08T04:45:24.336Z,6.10
2018-12-08T04:50:25.518Z,6.00
2018-12-08T04:55:26.747Z,5.90
2018-12-08T05:00:28.289Z,6.20
2018-12-08T05:05:29.474Z,6.20
2018-12-08T05:10:30.642Z,6.30
2018-12-08T05:15:31.829Z,6.20
2018-12-08T05:20:32.990Z,6.20
2018-12-08T05:25:34.194Z,6.10
2018-12-08T05:30:35.379Z,6.30
2018-12-08T05:35:36.547Z,6.20
2018-12-08T05:40:37.832Z,6.20
2018-12-08T05:45:39.003Z,6.20
2018-12-08T05:50:40.189Z,6.10
2018-12-08T05:55:41.461Z,5.80
2018-12-08T06:06:11.198Z,5.80
2018-12-08T06:11:12.374Z,5.90
2018-12-08T06:16:13.554Z,5.90
2018-12-08T06:21:14.718Z,6.00
2018-12-08T06:26:15.882Z,6.20
2018-12-08T06:31:17.077Z,6.30
2018-12-08T06:36:18.680Z,6.40
2018-12-08T06:41:19.855Z,6.40
2018-12-08T06:46:21.025Z,6.40
2018-12-08T06:51:22.256Z,6.40
2018-12-08T06:56:23.499Z,6.40
2018-12-08T07:01:24.678Z,6.40
2018-12-08T07:06:25.890Z,6.40
2018-12-08T07:11:27.181Z,6.40
2018-12-08T07:16:28.394Z,6.40
2018-12-08T07:21:29.597Z,6.40
2018-12-08T07:26:30.794Z,6.40
2018-12-08T07:31:31.993Z,6.40
2018-12-08T07:36:33.163Z,6.40
2018-12-08T07:41:34.339Z,6.50
2018-12-08T07:46:35.531Z,6.60
2018-12-08T07:51:36.709Z,6.80
2018-12-08T07:56:37.941Z,6.90
2018-12-08T08:01:39.114Z,7.00
2018-12-08T08:06:40.347Z,7.10
2018-12-08T08:11:41.555Z,7.30
2018-12-08T08:16:42.858Z,7.40
2018-12-08T08:21:44.047Z,7.40
2018-12-08T08:26:45.362Z,7.40
2018-12-08T08:31:46.545Z,7.40
2018-12-08T08:36:47.725Z,7.30
2018-12-08T08:41:48.914Z,7.40
2018-12-08T08:46:50.089Z,7.40
2018-12-08T08:51:51.273Z,7.40
2018-12-08T08:56:52.498Z,7.50
2018-12-08T09:01:53.787Z,7.60
2018-12-08T09:06:54.972Z,7.70
2018-12-08T09:11:56.160Z,7.80
2018-12-08T09:16:57.337Z,7.80
2018-12-08T09:21:58.518Z,7.80
2018-12-08T09:26:59.707Z,7.80
2018-12-08T09:32:00.917Z,7.90
2018-12-08T09:37:02.214Z,8.10
2018-12-08T09:42:03.415Z,8.20
2018-12-08T09:47:04.721Z,8.10
2018-12-08T09:52:06.024Z,8.10
2018-12-08T09:57:07.226Z,8.10
2018-12-08T10:02:08.458Z,8.10
2018-12-08T10:07:09.639Z,8.10
2018-12-08T10:12:10.872Z,8.20
2018-12-08T10:17:12.077Z,8.20
2018-12-08T10:22:13.254Z,8.20
2018-12-08T10:27:14.440Z,8.20
2018-12-08T10:32:15.754Z,8.30
2018-12-08T10:37:16.965Z,8.30
2018-12-08T10:42:18.156Z,8.30
2018-12-08T10:47:19.369Z,8.50
2018-12-08T10:52:20.663Z,8.80
2018-12-08T10:57:21.845Z,8.90
2018-12-08T11:02:29.105Z,8.80
2018-12-08T11:07:30.380Z,8.70
2018-12-08T11:12:31.554Z,8.70
2018-12-08T11:17:32.725Z,8.60
2018-12-08T11:22:33.952Z,8.70
2018-12-08T11:27:35.139Z,8.70
2018-12-08T11:32:36.321Z,8.60
2018-12-08T11:37:37.514Z,8.50
2018-12-08T11:42:38.726Z,8.50
2018-12-08T11:47:39.926Z,8.70
2018-12-08T11:52:41.106Z,8.80
2018-12-08T11:57:42.317Z,8.70
2018-12-08T12:02:43.776Z,9.00
2018-12-08T12:07:44.950Z,8.80
2018-12-08T12:12:46.147Z,9.00
2018-12-08T12:17:47.362Z,9.20
2018-12-08T12:22:48.570Z,9.10
2018-12-08T12:27:50.190Z,9.10
2018-12-08T12:32:51.405Z,9.00
2018-12-08T12:37:52.618Z,9.00
2018-12-08T12:42:53.842Z,9.00
2018-12-08T12:47:55.034Z,8.90
2018-12-08T12:52:56.238Z,8.80
2018-12-08T12:57:57.450Z,8.70
2018-12-08T13:02:58.785Z,8.70
2018-12-08T13:08:00.935Z,8.70
2018-12-08T13:13:02.133Z,8.50
2018-12-08T13:18:04.292Z,8.20
2018-12-08T13:23:05.495Z,8.40
2018-12-08T13:28:06.697Z,7.90
2018-12-08T13:33:08.035Z,8.20
2018-12-08T13:38:09.232Z,8.40
2018-12-08T13:43:10.453Z,8.40
2018-12-08T13:48:13.211Z,8.40
2018-12-08T13:53:14.379Z,8.20
2018-12-08T13:58:15.586Z,8.20
2018-12-08T14:03:16.784Z,8.20
2018-12-08T14:08:18.002Z,8.00
2018-12-08T14:13:19.304Z,7.80
2018-12-08T14:18:20.520Z,7.80
2018-12-08T14:23:21.729Z,7.70
2018-12-08T14:28:23.051Z,7.70
2018-12-08T14:33:24.255Z,7.70
2018-12-08T14:38:25.451Z,7.90
2018-12-08T14:43:26.638Z,7.90
2018-12-08T14:48:27.817Z,8.00
2018-12-08T14:53:29.033Z,7.90
2018-12-08T14:58:30.219Z,7.80
2018-12-08T15:03:31.410Z,7.90
2018-12-08T15:08:32.658Z,8.00
2018-12-08T15:13:33.872Z,8.00
2018-12-08T15:18:35.068Z,7.80
2018-12-08T15:23:36.298Z,7.80
2018-12-08T15:28:37.642Z,7.80
2018-12-08T15:33:38.876Z,7.80
2018-12-08T15:38:40.093Z,7.80
2018-12-08T15:43:41.355Z,7.90
2018-12-08T15:48:42.553Z,7.90
2018-12-08T15:53:43.790Z,7.90
2018-12-08T15:58:45.096Z,7.90
2018-12-08T16:03:46.354Z,7.80
2018-12-08T16:08:47.600Z,7.90
2018-12-08T16:13:48.791Z,7.90
2018-12-08T16:18:49.998Z,7.90
2018-12-08T16:23:51.197Z,8.00
2018-12-08T16:28:52.401Z,8.10
2018-12-08T16:33:53.674Z,8.20
2018-12-08T16:38:55.137Z,8.20
2018-12-08T16:43:56.388Z,8.30
2018-12-08T16:48:57.624Z,8.40
2018-12-08T16:53:58.946Z,8.40
2018-12-08T16:59:00.190Z,8.50
2018-12-08T17:04:01.386Z,8.60
2018-12-08T17:09:03.343Z,8.60
2018-12-08T17:14:04.727Z,8.60
2018-12-08T17:19:06.061Z,12.70
2018-12-08T17:24:07.294Z,8.50
2018-12-08T17:29:08.657Z,8.50
2018-12-08T17:34:09.932Z,8.50
2018-12-08T17:39:12.454Z,8.50
2018-12-08T17:44:13.666Z,8.50
2018-12-08T17:49:14.975Z,8.50
2018-12-08T17:54:16.214Z,8.50
2018-12-08T17:59:17.415Z,8.50
2018-12-08T18:04:18.780Z,8.60
2018-12-08T18:09:20.108Z,8.60
2018-12-08T18:14:21.464Z,8.50
2018-12-08T18:19:22.812Z,8.50
2018-12-08T18:24:24.784Z,8.60
2018-12-08T18:29:26.115Z,8.60
2018-12-08T18:34:27.322Z,8.60
2018-12-08T18:39:28.523Z,8.60
2018-12-08T18:44:29.724Z,8.80
2018-12-08T18:49:30.906Z,8.80
2018-12-08T18:54:32.208Z,8.80
2018-12-08T18:59:33.411Z,8.80
2018-12-08T19:04:34.610Z,8.90
2018-12-08T19:09:35.812Z,8.80
2018-12-08T19:14:37.134Z,8.80
2018-12-08T19:19:38.358Z,8.70
2018-12-08T19:24:39.554Z,8.70
2018-12-08T19:29:40.762Z,8.80
2018-12-08T19:34:41.959Z,8.70
2018-12-08T19:39:43.175Z,8.60
2018-12-08T19:44:44.372Z,8.70
2018-12-08T19:49:45.561Z,8.80
2018-12-08T19:54:47.247Z,8.90
2018-12-08T19:59:48.522Z,9.00
2018-12-08T20:04:49.733Z,9.10
2018-12-08T20:09:50.956Z,9.10
2018-12-08T20:14:52.283Z,9.20
2018-12-08T20:19:53.488Z,9.10
2018-12-08T20:24:54.686Z,9.10
2018-12-08T20:29:55.897Z,9.10
2018-12-08T20:34:57.075Z,9.10
2018-12-08T20:39:58.279Z,9.20
2018-12-08T20:44:59.508Z,9.30
2018-12-08T20:50:00.685Z,9.20
2018-12-08T20:55:02.055Z,9.00
2018-12-08T21:00:03.674Z,8.90
2018-12-08T21:05:05.091Z,8.80
2018-12-08T21:10:06.512Z,8.60
2018-12-08T21:15:07.844Z,8.60
2018-12-08T21:20:09.272Z,8.60
2018-12-08T21:25:10.605Z,8.60
2018-12-08T21:30:11.910Z,8.60
2018-12-08T21:35:13.210Z,8.80
2018-12-08T21:40:18.479Z,8.90
2018-12-08T21:45:19.806Z,9.00
2018-12-08T21:50:21.129Z,9.10
2018-12-08T21:55:22.328Z,10.30
2018-12-08T22:00:23.530Z,9.00
2018-12-08T22:05:24.721Z,9.10
2018-12-08T22:10:25.948Z,9.10
2018-12-08T22:15:27.171Z,9.30
2018-12-08T22:20:28.425Z,9.00
2018-12-08T22:25:29.624Z,8.50
2018-12-08T22:30:30.802Z,8.30
2018-12-08T22:35:32.087Z,8.20
2018-12-08T22:40:33.290Z,8.20
2018-12-08T22:45:34.484Z,8.20
2018-12-08T22:50:35.666Z,8.40
2018-12-08T22:55:36.852Z,8.50
2018-12-08T23:00:44.740Z,8.70
2018-12-08T23:05:45.938Z,9.00
2018-12-08T23:10:47.153Z,9.30
2018-12-08T23:15:48.360Z,9.30
2018-12-08T23:20:49.596Z,9.40
2018-12-08T23:25:50.823Z,9.60
2018-12-08T23:30:52.023Z,9.70
2018-12-08T23:35:53.201Z,9.70
2018-12-08T23:40:54.399Z,9.70
2018-12-08T23:45:55.587Z,9.70
2018-12-08T23:50:56.924Z,9.60
2018-12-08T23:55:58.112Z,9.30
